KJWN

Details ICAO KJWN
Name JOHN C TUNE
Region United States
Timezone America/Chicago (UTC-6.0)
Plans Departing 20
Arriving 20
Stats Elevation 495 ft / 151 m (AMSL)
Location 36.182352° -86.886713°
Runways 1
Magnetic Variation 3.697° W
Sunrise 2017-12-14 12:52:14 UTC / 2017-12-14 06:52:14 Local
Sunset 2017-12-14 22:35:15 UTC / 2017-12-14 16:35:15 Local
Advertisement - Login to hide

Runways

ID Width Length Bearing (true) Bearing (mag) Surface Threshold Offset Overrun Length
02 100 ft / 30 m 5,511 ft / 1,680 m 14.69° 18.39° Asphalt 0 ft / 0 m 0 ft / 0 m
20 100 ft / 30 m 5,511 ft / 1,680 m 194.70° 198.40° Asphalt 500 ft / 152 m 0 ft / 0 m

Map

Weather


0- 5 10 15 20 25 30 35+ Temperature / ° C

Clouds and Precipitation
Forecast for 2017-12-14 12:00 UTC. Updated 2 hours ago

Ground ~20,000 ft ~40,000 ft Winds

METAR

KJWN 141315Z AUTO 33004KT 10SM CLR 01/M03 A2994 RMK A01

TAF

Not found

Frequencies

Recorded 127.07 MHz AWOS 3
Clearance 124.55 MHz CLNC DEL
Unicom 122.70 MHz CTAF/UNICOM
Approach 119.35 MHz NASHVILLE APP/DEP
Warning: Do not use this data for real-world aviation or navigation. No guarantee of current accuracy is given.